sensor_id;sensor_type;location;lat;lon;timestamp;P1;durP1;ratioP1;P2;durP2;ratioP2
36359;SDS011;22388;52.432;20.662;2024-02-21T00:01:52;22.00;;;5.68;;
36359;SDS011;22388;52.432;20.662;2024-02-21T00:04:17;18.52;;;5.68;;
36359;SDS011;22388;52.432;20.662;2024-02-21T00:06:43;19.30;;;5.65;;
36359;SDS011;22388;52.432;20.662;2024-02-21T00:09:08;17.70;;;5.00;;
36359;SDS011;22388;52.432;20.662;2024-02-21T00:11:34;21.63;;;5.53;;
36359;SDS011;22388;52.432;20.662;2024-02-21T00:14:00;23.10;;;6.32;;
36359;SDS011;22388;52.432;20.662;2024-02-21T00:16:25;19.30;;;5.72;;
36359;SDS011;22388;52.432;20.662;2024-02-21T00:18:52;22.88;;;5.95;;
36359;SDS011;22388;52.432;20.662;2024-02-21T00:21:17;22.17;;;5.88;;
36359;SDS011;22388;52.432;20.662;2024-02-21T00:23:44;17.83;;;4.97;;
36359;SDS011;22388;52.432;20.662;2024-02-21T00:26:11;18.15;;;5.60;;
36359;SDS011;22388;52.432;20.662;2024-02-21T00:28:36;17.77;;;5.63;;
36359;SDS011;22388;52.432;20.662;2024-02-21T00:31:02;19.13;;;6.13;;
36359;SDS011;22388;52.432;20.662;2024-02-21T00:33:27;24.25;;;5.38;;
36359;SDS011;22388;52.432;20.662;2024-02-21T00:35:53;22.23;;;5.85;;
36359;SDS011;22388;52.432;20.662;2024-02-21T00:38:18;17.13;;;5.65;;
36359;SDS011;22388;52.432;20.662;2024-02-21T00:40:43;22.10;;;6.25;;
36359;SDS011;22388;52.432;20.662;2024-02-21T00:43:09;19.52;;;5.53;;
36359;SDS011;22388;52.432;20.662;2024-02-21T00:45:34;19.35;;;5.43;;
36359;SDS011;22388;52.432;20.662;2024-02-21T00:48:00;23.25;;;5.90;;
36359;SDS011;22388;52.432;20.662;2024-02-21T00:50:25;19.27;;;5.18;;
36359;SDS011;22388;52.432;20.662;2024-02-21T00:52:51;21.50;;;5.25;;
36359;SDS011;22388;52.432;20.662;2024-02-21T00:55:16;19.95;;;4.70;;
36359;SDS011;22388;52.432;20.662;2024-02-21T00:57:42;28.70;;;5.85;;
36359;SDS011;22388;52.432;20.662;2024-02-21T01:00:07;16.95;;;5.20;;
36359;SDS011;22388;52.432;20.662;2024-02-21T01:02:33;20.67;;;5.47;;
36359;SDS011;22388;52.432;20.662;2024-02-21T01:04:58;24.45;;;5.72;;
36359;SDS011;22388;52.432;20.662;2024-02-21T01:07:24;20.15;;;5.65;;
36359;SDS011;22388;52.432;20.662;2024-02-21T01:09:49;23.27;;;6.07;;
36359;SDS011;22388;52.432;20.662;2024-02-21T01:12:16;28.00;;;6.50;;
36359;SDS011;22388;52.432;20.662;2024-02-21T01:14:41;21.42;;;5.60;;
36359;SDS011;22388;52.432;20.662;2024-02-21T01:17:07;22.55;;;6.63;;
36359;SDS011;22388;52.432;20.662;2024-02-21T01:19:32;22.33;;;5.50;;
36359;SDS011;22388;52.432;20.662;2024-02-21T01:21:58;20.23;;;6.57;;
36359;SDS011;22388;52.432;20.662;2024-02-21T01:24:23;26.30;;;6.38;;
36359;SDS011;22388;52.432;20.662;2024-02-21T01:26:49;24.30;;;6.80;;
36359;SDS011;22388;52.432;20.662;2024-02-21T01:29:14;23.63;;;6.55;;
36359;SDS011;22388;52.432;20.662;2024-02-21T01:31:40;19.02;;;6.57;;
36359;SDS011;22388;52.432;20.662;2024-02-21T01:34:06;22.73;;;7.30;;
36359;SDS011;22388;52.432;20.662;2024-02-21T01:36:31;26.50;;;7.80;;
36359;SDS011;22388;52.432;20.662;2024-02-21T01:38:56;22.20;;;6.93;;
36359;SDS011;22388;52.432;20.662;2024-02-21T01:41:22;23.17;;;7.30;;
36359;SDS011;22388;52.432;20.662;2024-02-21T01:43:47;23.60;;;8.15;;
36359;SDS011;22388;52.432;20.662;2024-02-21T01:46:13;26.40;;;7.57;;
36359;SDS011;22388;52.432;20.662;2024-02-21T01:48:38;24.55;;;8.63;;
36359;SDS011;22388;52.432;20.662;2024-02-21T01:51:04;26.38;;;9.50;;
36359;SDS011;22388;52.432;20.662;2024-02-21T01:53:30;30.05;;;9.73;;
36359;SDS011;22388;52.432;20.662;2024-02-21T01:55:56;28.08;;;9.75;;
36359;SDS011;22388;52.432;20.662;2024-02-21T01:58:21;26.02;;;9.65;;
36359;SDS011;22388;52.432;20.662;2024-02-21T02:00:47;23.88;;;9.25;;
36359;SDS011;22388;52.432;20.662;2024-02-21T02:03:13;21.35;;;8.70;;
36359;SDS011;22388;52.432;20.662;2024-02-21T02:05:43;31.88;;;10.30;;
36359;SDS011;22388;52.432;20.662;2024-02-21T02:08:08;27.40;;;10.60;;
36359;SDS011;22388;52.432;20.662;2024-02-21T02:10:34;26.48;;;10.23;;
36359;SDS011;22388;52.432;20.662;2024-02-21T02:13:00;30.95;;;10.60;;
36359;SDS011;22388;52.432;20.662;2024-02-21T02:15:25;28.30;;;10.80;;
36359;SDS011;22388;52.432;20.662;2024-02-21T02:17:50;32.50;;;11.00;;
36359;SDS011;22388;52.432;20.662;2024-02-21T02:20:16;33.25;;;10.70;;
36359;SDS011;22388;52.432;20.662;2024-02-21T02:22:41;23.17;;;10.02;;
36359;SDS011;22388;52.432;20.662;2024-02-21T02:25:08;29.35;;;11.18;;
36359;SDS011;22388;52.432;20.662;2024-02-21T02:27:40;30.60;;;11.70;;
36359;SDS011;22388;52.432;20.662;2024-02-21T02:30:07;28.80;;;11.15;;
36359;SDS011;22388;52.432;20.662;2024-02-21T02:32:32;37.00;;;12.27;;
36359;SDS011;22388;52.432;20.662;2024-02-21T02:34:58;30.17;;;11.10;;
36359;SDS011;22388;52.432;20.662;2024-02-21T02:37:23;29.25;;;12.43;;
36359;SDS011;22388;52.432;20.662;2024-02-21T02:39:48;37.35;;;12.25;;
36359;SDS011;22388;52.432;20.662;2024-02-21T02:42:14;28.77;;;11.85;;
36359;SDS011;22388;52.432;20.662;2024-02-21T02:44:39;28.70;;;11.85;;
36359;SDS011;22388;52.432;20.662;2024-02-21T02:47:05;33.13;;;12.88;;
36359;SDS011;22388;52.432;20.662;2024-02-21T02:49:30;30.50;;;12.52;;
36359;SDS011;22388;52.432;20.662;2024-02-21T02:51:56;30.67;;;12.95;;
36359;SDS011;22388;52.432;20.662;2024-02-21T02:54:21;34.03;;;13.07;;
36359;SDS011;22388;52.432;20.662;2024-02-21T02:56:46;32.97;;;12.48;;
36359;SDS011;22388;52.432;20.662;2024-02-21T02:59:12;25.95;;;13.30;;
36359;SDS011;22388;52.432;20.662;2024-02-21T03:01:37;31.80;;;12.38;;
36359;SDS011;22388;52.432;20.662;2024-02-21T03:04:03;32.60;;;12.60;;
36359;SDS011;22388;52.432;20.662;2024-02-21T03:06:29;35.58;;;12.55;;
36359;SDS011;22388;52.432;20.662;2024-02-21T03:08:54;32.15;;;13.25;;
36359;SDS011;22388;52.432;20.662;2024-02-21T03:11:20;31.85;;;11.90;;
36359;SDS011;22388;52.432;20.662;2024-02-21T03:13:46;27.75;;;12.40;;
36359;SDS011;22388;52.432;20.662;2024-02-21T03:16:11;36.45;;;13.65;;
36359;SDS011;22388;52.432;20.662;2024-02-21T03:18:37;27.60;;;13.40;;
36359;SDS011;22388;52.432;20.662;2024-02-21T03:21:02;28.15;;;12.88;;
36359;SDS011;22388;52.432;20.662;2024-02-21T03:23:28;30.23;;;13.07;;
36359;SDS011;22388;52.432;20.662;2024-02-21T03:25:53;30.25;;;13.15;;
36359;SDS011;22388;52.432;20.662;2024-02-21T03:28:19;37.80;;;14.15;;
36359;SDS011;22388;52.432;20.662;2024-02-21T03:30:44;32.28;;;12.98;;
36359;SDS011;22388;52.432;20.662;2024-02-21T03:33:09;29.35;;;13.23;;
36359;SDS011;22388;52.432;20.662;2024-02-21T03:35:35;30.23;;;13.50;;
36359;SDS011;22388;52.432;20.662;2024-02-21T03:38:00;32.08;;;12.98;;
36359;SDS011;22388;52.432;20.662;2024-02-21T03:40:26;36.70;;;12.48;;
36359;SDS011;22388;52.432;20.662;2024-02-21T03:42:51;37.75;;;12.88;;
36359;SDS011;22388;52.432;20.662;2024-02-21T03:45:16;33.05;;;12.10;;
36359;SDS011;22388;52.432;20.662;2024-02-21T03:47:42;36.83;;;12.60;;
36359;SDS011;22388;52.432;20.662;2024-02-21T03:50:07;28.30;;;12.65;;
36359;SDS011;22388;52.432;20.662;2024-02-21T03:52:33;33.15;;;13.40;;
36359;SDS011;22388;52.432;20.662;2024-02-21T03:54:58;39.17;;;16.15;;
36359;SDS011;22388;52.432;20.662;2024-02-21T03:57:24;36.90;;;14.25;;
36359;SDS011;22388;52.432;20.662;2024-02-21T03:59:52;30.33;;;14.10;;
36359;SDS011;22388;52.432;20.662;2024-02-21T04:02:17;36.20;;;12.98;;
36359;SDS011;22388;52.432;20.662;2024-02-21T04:04:45;31.17;;;13.55;;
36359;SDS011;22388;52.432;20.662;2024-02-21T04:07:12;36.20;;;14.73;;
36359;SDS011;22388;52.432;20.662;2024-02-21T04:09:37;36.67;;;13.73;;
36359;SDS011;22388;52.432;20.662;2024-02-21T04:12:03;35.03;;;14.90;;
36359;SDS011;22388;52.432;20.662;2024-02-21T04:14:28;38.13;;;15.93;;
36359;SDS011;22388;52.432;20.662;2024-02-21T04:16:54;34.60;;;15.52;;
36359;SDS011;22388;52.432;20.662;2024-02-21T04:19:19;30.75;;;14.40;;
36359;SDS011;22388;52.432;20.662;2024-02-21T04:21:45;36.35;;;14.73;;
36359;SDS011;22388;52.432;20.662;2024-02-21T04:24:11;42.42;;;15.50;;
36359;SDS011;22388;52.432;20.662;2024-02-21T04:26:36;37.50;;;15.45;;
36359;SDS011;22388;52.432;20.662;2024-02-21T04:29:02;37.97;;;15.70;;
36359;SDS011;22388;52.432;20.662;2024-02-21T04:31:27;34.85;;;15.48;;
36359;SDS011;22388;52.432;20.662;2024-02-21T04:33:53;31.42;;;15.13;;
36359;SDS011;22388;52.432;20.662;2024-02-21T04:36:18;32.70;;;14.70;;
36359;SDS011;22388;52.432;20.662;2024-02-21T04:38:44;37.50;;;15.57;;
36359;SDS011;22388;52.432;20.662;2024-02-21T04:41:10;35.72;;;15.75;;
36359;SDS011;22388;52.432;20.662;2024-02-21T04:43:36;35.70;;;15.60;;
36359;SDS011;22388;52.432;20.662;2024-02-21T04:46:01;39.90;;;16.02;;
36359;SDS011;22388;52.432;20.662;2024-02-21T04:48:27;37.17;;;15.60;;
36359;SDS011;22388;52.432;20.662;2024-02-21T04:50:52;31.73;;;15.60;;
36359;SDS011;22388;52.432;20.662;2024-02-21T04:53:17;41.10;;;16.90;;
36359;SDS011;22388;52.432;20.662;2024-02-21T04:55:43;40.90;;;17.02;;
36359;SDS011;22388;52.432;20.662;2024-02-21T04:58:09;40.55;;;18.10;;
36359;SDS011;22388;52.432;20.662;2024-02-21T05:00:34;40.85;;;17.55;;
36359;SDS011;22388;52.432;20.662;2024-02-21T05:02:59;40.65;;;18.33;;
36359;SDS011;22388;52.432;20.662;2024-02-21T05:05:25;36.40;;;16.77;;
36359;SDS011;22388;52.432;20.662;2024-02-21T05:07:50;41.15;;;16.90;;
36359;SDS011;22388;52.432;20.662;2024-02-21T05:10:16;45.28;;;18.13;;
36359;SDS011;22388;52.432;20.662;2024-02-21T05:12:42;41.90;;;19.60;;
36359;SDS011;22388;52.432;20.662;2024-02-21T05:15:08;42.30;;;18.95;;
36359;SDS011;22388;52.432;20.662;2024-02-21T05:17:33;47.22;;;19.25;;
36359;SDS011;22388;52.432;20.662;2024-02-21T05:19:59;43.70;;;19.40;;
36359;SDS011;22388;52.432;20.662;2024-02-21T05:22:24;47.90;;;19.33;;
36359;SDS011;22388;52.432;20.662;2024-02-21T05:24:49;42.03;;;20.40;;
36359;SDS011;22388;52.432;20.662;2024-02-21T05:27:15;37.55;;;19.65;;
36359;SDS011;22388;52.432;20.662;2024-02-21T05:29:40;45.92;;;18.83;;
36359;SDS011;22388;52.432;20.662;2024-02-21T05:32:06;43.13;;;20.77;;
36359;SDS011;22388;52.432;20.662;2024-02-21T05:34:31;44.25;;;20.10;;
36359;SDS011;22388;52.432;20.662;2024-02-21T05:36:56;56.65;;;20.38;;
36359;SDS011;22388;52.432;20.662;2024-02-21T05:39:24;35.35;;;18.40;;
36359;SDS011;22388;52.432;20.662;2024-02-21T05:41:50;44.28;;;19.48;;
36359;SDS011;22388;52.432;20.662;2024-02-21T05:44:16;36.67;;;19.38;;
36359;SDS011;22388;52.432;20.662;2024-02-21T05:46:42;40.83;;;18.67;;
36359;SDS011;22388;52.432;20.662;2024-02-21T05:49:07;44.70;;;19.25;;
36359;SDS011;22388;52.432;20.662;2024-02-21T05:51:33;42.17;;;19.95;;
36359;SDS011;22388;52.432;20.662;2024-02-21T05:53:58;42.85;;;20.38;;
36359;SDS011;22388;52.432;20.662;2024-02-21T05:56:24;53.88;;;21.13;;
36359;SDS011;22388;52.432;20.662;2024-02-21T05:58:49;44.55;;;20.92;;
36359;SDS011;22388;52.432;20.662;2024-02-21T06:01:14;44.53;;;20.98;;
36359;SDS011;22388;52.432;20.662;2024-02-21T06:03:40;54.03;;;21.27;;
36359;SDS011;22388;52.432;20.662;2024-02-21T06:06:05;42.55;;;19.98;;
36359;SDS011;22388;52.432;20.662;2024-02-21T06:08:31;45.28;;;19.98;;
36359;SDS011;22388;52.432;20.662;2024-02-21T06:10:56;48.22;;;20.73;;
36359;SDS011;22388;52.432;20.662;2024-02-21T06:13:23;54.45;;;20.30;;
36359;SDS011;22388;52.432;20.662;2024-02-21T06:15:48;56.85;;;21.85;;
36359;SDS011;22388;52.432;20.662;2024-02-21T06:18:15;50.22;;;21.63;;
36359;SDS011;22388;52.432;20.662;2024-02-21T06:20:41;50.83;;;21.50;;
36359;SDS011;22388;52.432;20.662;2024-02-21T06:23:08;43.53;;;20.92;;
36359;SDS011;22388;52.432;20.662;2024-02-21T06:25:33;54.78;;;23.25;;
36359;SDS011;22388;52.432;20.662;2024-02-21T06:27:59;57.67;;;23.30;;
36359;SDS011;22388;52.432;20.662;2024-02-21T06:30:24;54.95;;;22.15;;
36359;SDS011;22388;52.432;20.662;2024-02-21T06:32:50;45.78;;;22.23;;
36359;SDS011;22388;52.432;20.662;2024-02-21T06:35:15;53.08;;;22.58;;
36359;SDS011;22388;52.432;20.662;2024-02-21T06:37:42;53.63;;;22.73;;
36359;SDS011;22388;52.432;20.662;2024-02-21T06:40:07;54.05;;;23.05;;
36359;SDS011;22388;52.432;20.662;2024-02-21T06:42:33;61.65;;;23.05;;
36359;SDS011;22388;52.432;20.662;2024-02-21T06:44:58;65.78;;;24.50;;
36359;SDS011;22388;52.432;20.662;2024-02-21T06:47:24;55.15;;;23.92;;
36359;SDS011;22388;52.432;20.662;2024-02-21T06:49:49;61.35;;;23.88;;
36359;SDS011;22388;52.432;20.662;2024-02-21T06:52:17;54.65;;;23.83;;
36359;SDS011;22388;52.432;20.662;2024-02-21T06:54:43;63.75;;;24.83;;
36359;SDS011;22388;52.432;20.662;2024-02-21T06:57:09;58.92;;;24.88;;
36359;SDS011;22388;52.432;20.662;2024-02-21T06:59:34;57.10;;;24.40;;
36359;SDS011;22388;52.432;20.662;2024-02-21T07:02:00;61.25;;;25.38;;
36359;SDS011;22388;52.432;20.662;2024-02-21T07:04:26;55.22;;;23.95;;
36359;SDS011;22388;52.432;20.662;2024-02-21T07:06:52;53.65;;;24.27;;
36359;SDS011;22388;52.432;20.662;2024-02-21T07:09:17;54.28;;;23.58;;
36359;SDS011;22388;52.432;20.662;2024-02-21T07:11:43;61.90;;;25.60;;
36359;SDS011;22388;52.432;20.662;2024-02-21T07:14:08;57.95;;;24.60;;
36359;SDS011;22388;52.432;20.662;2024-02-21T07:16:33;57.70;;;24.88;;
36359;SDS011;22388;52.432;20.662;2024-02-21T07:19:00;57.00;;;25.35;;
36359;SDS011;22388;52.432;20.662;2024-02-21T07:21:25;75.43;;;26.60;;
36359;SDS011;22388;52.432;20.662;2024-02-21T07:23:50;67.63;;;25.13;;
36359;SDS011;22388;52.432;20.662;2024-02-21T07:26:16;61.85;;;26.02;;
36359;SDS011;22388;52.432;20.662;2024-02-21T07:28:41;69.30;;;25.52;;
36359;SDS011;22388;52.432;20.662;2024-02-21T07:31:07;63.53;;;25.95;;
36359;SDS011;22388;52.432;20.662;2024-02-21T07:33:32;68.88;;;25.77;;
36359;SDS011;22388;52.432;20.662;2024-02-21T07:35:58;68.70;;;26.02;;
36359;SDS011;22388;52.432;20.662;2024-02-21T07:38:23;74.97;;;25.67;;
36359;SDS011;22388;52.432;20.662;2024-02-21T07:40:48;71.68;;;26.77;;
36359;SDS011;22388;52.432;20.662;2024-02-21T07:43:14;68.95;;;24.50;;
36359;SDS011;22388;52.432;20.662;2024-02-21T07:45:39;72.93;;;26.95;;
36359;SDS011;22388;52.432;20.662;2024-02-21T07:48:05;66.25;;;26.02;;
36359;SDS011;22388;52.432;20.662;2024-02-21T07:50:31;66.72;;;24.23;;
36359;SDS011;22388;52.432;20.662;2024-02-21T07:52:57;70.18;;;24.17;;
36359;SDS011;22388;52.432;20.662;2024-02-21T07:55:22;63.88;;;24.48;;
36359;SDS011;22388;52.432;20.662;2024-02-21T07:57:47;78.05;;;25.73;;
36359;SDS011;22388;52.432;20.662;2024-02-21T08:00:13;70.00;;;25.33;;
36359;SDS011;22388;52.432;20.662;2024-02-21T08:02:45;65.60;;;25.55;;
36359;SDS011;22388;52.432;20.662;2024-02-21T08:05:10;61.25;;;24.05;;
36359;SDS011;22388;52.432;20.662;2024-02-21T08:07:37;66.57;;;24.80;;
36359;SDS011;22388;52.432;20.662;2024-02-21T08:10:03;61.60;;;24.20;;
36359;SDS011;22388;52.432;20.662;2024-02-21T08:12:28;73.35;;;25.30;;
36359;SDS011;22388;52.432;20.662;2024-02-21T08:14:54;59.95;;;24.48;;
36359;SDS011;22388;52.432;20.662;2024-02-21T08:17:19;61.45;;;23.90;;
36359;SDS011;22388;52.432;20.662;2024-02-21T08:19:44;66.55;;;25.52;;
36359;SDS011;22388;52.432;20.662;2024-02-21T08:22:10;70.43;;;25.23;;
36359;SDS011;22388;52.432;20.662;2024-02-21T08:24:35;59.97;;;24.23;;
36359;SDS011;22388;52.432;20.662;2024-02-21T08:27:01;71.65;;;24.20;;
36359;SDS011;22388;52.432;20.662;2024-02-21T08:29:26;61.17;;;23.20;;
36359;SDS011;22388;52.432;20.662;2024-02-21T08:31:53;57.08;;;23.85;;
36359;SDS011;22388;52.432;20.662;2024-02-21T08:34:18;61.80;;;22.27;;
36359;SDS011;22388;52.432;20.662;2024-02-21T08:36:43;59.78;;;23.75;;
36359;SDS011;22388;52.432;20.662;2024-02-21T08:39:08;57.00;;;23.95;;
36359;SDS011;22388;52.432;20.662;2024-02-21T08:41:34;59.33;;;23.67;;
36359;SDS011;22388;52.432;20.662;2024-02-21T08:44:00;62.85;;;23.67;;
36359;SDS011;22388;52.432;20.662;2024-02-21T08:46:25;53.42;;;24.17;;
36359;SDS011;22388;52.432;20.662;2024-02-21T08:48:51;59.55;;;23.55;;
36359;SDS011;22388;52.432;20.662;2024-02-21T08:51:17;51.35;;;23.95;;
36359;SDS011;22388;52.432;20.662;2024-02-21T08:53:46;53.58;;;24.17;;
36359;SDS011;22388;52.432;20.662;2024-02-21T08:56:11;66.07;;;24.13;;
36359;SDS011;22388;52.432;20.662;2024-02-21T08:58:38;58.15;;;23.42;;
36359;SDS011;22388;52.432;20.662;2024-02-21T09:01:04;52.10;;;22.50;;
36359;SDS011;22388;52.432;20.662;2024-02-21T09:03:31;48.40;;;23.45;;
36359;SDS011;22388;52.432;20.662;2024-02-21T09:05:56;56.03;;;22.73;;
36359;SDS011;22388;52.432;20.662;2024-02-21T09:08:22;51.40;;;23.40;;
36359;SDS011;22388;52.432;20.662;2024-02-21T09:10:47;61.72;;;22.42;;
36359;SDS011;22388;52.432;20.662;2024-02-21T09:13:13;51.47;;;21.77;;
36359;SDS011;22388;52.432;20.662;2024-02-21T09:15:38;54.78;;;22.48;;
36359;SDS011;22388;52.432;20.662;2024-02-21T09:18:05;51.45;;;21.20;;
36359;SDS011;22388;52.432;20.662;2024-02-21T09:20:30;44.53;;;20.73;;
36359;SDS011;22388;52.432;20.662;2024-02-21T09:22:56;49.63;;;21.52;;
36359;SDS011;22388;52.432;20.662;2024-02-21T09:25:22;46.00;;;21.20;;
36359;SDS011;22388;52.432;20.662;2024-02-21T09:27:47;47.67;;;21.25;;
36359;SDS011;22388;52.432;20.662;2024-02-21T09:30:12;48.22;;;21.08;;
36359;SDS011;22388;52.432;20.662;2024-02-21T09:32:38;50.70;;;21.27;;
36359;SDS011;22388;52.432;20.662;2024-02-21T09:35:03;47.13;;;22.45;;
36359;SDS011;22388;52.432;20.662;2024-02-21T09:37:30;46.00;;;21.05;;
36359;SDS011;22388;52.432;20.662;2024-02-21T09:39:56;48.95;;;21.25;;
36359;SDS011;22388;52.432;20.662;2024-02-21T09:42:21;48.08;;;21.77;;
36359;SDS011;22388;52.432;20.662;2024-02-21T09:44:47;54.22;;;22.38;;
36359;SDS011;22388;52.432;20.662;2024-02-21T09:47:24;48.55;;;22.25;;
36359;SDS011;22388;52.432;20.662;2024-02-21T09:49:49;48.70;;;22.65;;
36359;SDS011;22388;52.432;20.662;2024-02-21T09:52:16;48.75;;;22.10;;
36359;SDS011;22388;52.432;20.662;2024-02-21T09:54:42;51.83;;;22.02;;
36359;SDS011;22388;52.432;20.662;2024-02-21T09:57:10;52.00;;;23.25;;
36359;SDS011;22388;52.432;20.662;2024-02-21T09:59:35;52.90;;;22.85;;
36359;SDS011;22388;52.432;20.662;2024-02-21T10:02:01;47.00;;;22.60;;
36359;SDS011;22388;52.432;20.662;2024-02-21T10:04:26;55.40;;;24.65;;
36359;SDS011;22388;52.432;20.662;2024-02-21T10:06:53;62.70;;;24.27;;
36359;SDS011;22388;52.432;20.662;2024-02-21T10:09:25;56.38;;;23.80;;
36359;SDS011;22388;52.432;20.662;2024-02-21T10:11:54;54.60;;;23.98;;
36359;SDS011;22388;52.432;20.662;2024-02-21T10:14:20;48.60;;;24.90;;
36359;SDS011;22388;52.432;20.662;2024-02-21T10:16:49;58.60;;;25.25;;
36359;SDS011;22388;52.432;20.662;2024-02-21T10:19:18;60.53;;;25.52;;
36359;SDS011;22388;52.432;20.662;2024-02-21T10:21:43;60.05;;;25.83;;
36359;SDS011;22388;52.432;20.662;2024-02-21T10:24:10;56.15;;;25.67;;
36359;SDS011;22388;52.432;20.662;2024-02-21T10:26:37;59.15;;;25.17;;
36359;SDS011;22388;52.432;20.662;2024-02-21T10:29:03;59.35;;;25.20;;
36359;SDS011;22388;52.432;20.662;2024-02-21T10:31:28;60.20;;;26.55;;
36359;SDS011;22388;52.432;20.662;2024-02-21T10:33:57;59.65;;;25.95;;
36359;SDS011;22388;52.432;20.662;2024-02-21T10:36:23;66.45;;;26.90;;
36359;SDS011;22388;52.432;20.662;2024-02-21T10:38:49;53.00;;;25.13;;
36359;SDS011;22388;52.432;20.662;2024-02-21T10:41:15;54.40;;;25.55;;
36359;SDS011;22388;52.432;20.662;2024-02-21T10:43:43;57.13;;;26.02;;
36359;SDS011;22388;52.432;20.662;2024-02-21T10:46:11;60.10;;;25.83;;
36359;SDS011;22388;52.432;20.662;2024-02-21T10:48:43;63.67;;;26.17;;
36359;SDS011;22388;52.432;20.662;2024-02-21T10:53:43;61.95;;;26.35;;
36359;SDS011;22388;52.432;20.662;2024-02-21T10:58:40;57.13;;;26.52;;
36359;SDS011;22388;52.432;20.662;2024-02-21T11:01:06;65.38;;;26.48;;
36359;SDS011;22388;52.432;20.662;2024-02-21T11:03:33;55.45;;;26.98;;
36359;SDS011;22388;52.432;20.662;2024-02-21T11:05:58;53.63;;;25.17;;
36359;SDS011;22388;52.432;20.662;2024-02-21T11:08:24;51.35;;;26.90;;
36359;SDS011;22388;52.432;20.662;2024-02-21T11:10:56;46.65;;;24.88;;
36359;SDS011;22388;52.432;20.662;2024-02-21T11:13:29;59.60;;;25.10;;
36359;SDS011;22388;52.432;20.662;2024-02-21T11:16:05;42.97;;;23.63;;
36359;SDS011;22388;52.432;20.662;2024-02-21T11:18:30;56.75;;;26.58;;
36359;SDS011;22388;52.432;20.662;2024-02-21T11:20:56;50.50;;;25.05;;
36359;SDS011;22388;52.432;20.662;2024-02-21T11:23:27;56.72;;;24.67;;
36359;SDS011;22388;52.432;20.662;2024-02-21T11:26:03;55.33;;;26.55;;
36359;SDS011;22388;52.432;20.662;2024-02-21T11:28:30;57.30;;;24.63;;
36359;SDS011;22388;52.432;20.662;2024-02-21T11:31:04;58.70;;;25.30;;
36359;SDS011;22388;52.432;20.662;2024-02-21T11:33:33;49.42;;;24.38;;
36359;SDS011;22388;52.432;20.662;2024-02-21T11:35:59;54.78;;;24.73;;
36359;SDS011;22388;52.432;20.662;2024-02-21T11:38:24;54.60;;;24.98;;
36359;SDS011;22388;52.432;20.662;2024-02-21T11:40:50;52.25;;;24.83;;
36359;SDS011;22388;52.432;20.662;2024-02-21T11:43:15;55.75;;;24.75;;
36359;SDS011;22388;52.432;20.662;2024-02-21T11:45:45;55.58;;;26.73;;
36359;SDS011;22388;52.432;20.662;2024-02-21T11:48:10;57.00;;;25.08;;
36359;SDS011;22388;52.432;20.662;2024-02-21T11:50:36;44.58;;;24.42;;
36359;SDS011;22388;52.432;20.662;2024-02-21T11:53:02;52.72;;;24.45;;
36359;SDS011;22388;52.432;20.662;2024-02-21T11:55:28;55.13;;;23.38;;
36359;SDS011;22388;52.432;20.662;2024-02-21T11:57:53;51.75;;;23.60;;
36359;SDS011;22388;52.432;20.662;2024-02-21T12:00:19;48.53;;;23.52;;
36359;SDS011;22388;52.432;20.662;2024-02-21T12:02:49;50.17;;;23.75;;
36359;SDS011;22388;52.432;20.662;2024-02-21T12:05:15;44.47;;;24.30;;
36359;SDS011;22388;52.432;20.662;2024-02-21T12:07:41;61.17;;;23.98;;
36359;SDS011;22388;52.432;20.662;2024-02-21T12:10:08;54.15;;;25.48;;
36359;SDS011;22388;52.432;20.662;2024-02-21T12:12:35;50.70;;;25.15;;
36359;SDS011;22388;52.432;20.662;2024-02-21T12:15:03;44.65;;;23.70;;
36359;SDS011;22388;52.432;20.662;2024-02-21T12:17:29;48.13;;;24.45;;
36359;SDS011;22388;52.432;20.662;2024-02-21T12:19:55;47.40;;;24.75;;
36359;SDS011;22388;52.432;20.662;2024-02-21T12:22:21;47.28;;;23.75;;
36359;SDS011;22388;52.432;20.662;2024-02-21T12:24:47;44.28;;;23.20;;
36359;SDS011;22388;52.432;20.662;2024-02-21T12:27:13;58.38;;;23.67;;
36359;SDS011;22388;52.432;20.662;2024-02-21T12:29:38;47.88;;;22.95;;
36359;SDS011;22388;52.432;20.662;2024-02-21T12:32:04;50.75;;;24.00;;
36359;SDS011;22388;52.432;20.662;2024-02-21T12:34:30;51.30;;;24.35;;
36359;SDS011;22388;52.432;20.662;2024-02-21T12:36:58;49.80;;;23.52;;
36359;SDS011;22388;52.432;20.662;2024-02-21T12:39:23;50.00;;;22.17;;
36359;SDS011;22388;52.432;20.662;2024-02-21T12:41:48;46.17;;;23.20;;
36359;SDS011;22388;52.432;20.662;2024-02-21T12:44:14;54.33;;;24.88;;
36359;SDS011;22388;52.432;20.662;2024-02-21T12:46:41;44.47;;;21.90;;
36359;SDS011;22388;52.432;20.662;2024-02-21T12:49:06;49.03;;;23.35;;
36359;SDS011;22388;52.432;20.662;2024-02-21T12:51:35;45.70;;;22.23;;
36359;SDS011;22388;52.432;20.662;2024-02-21T12:54:00;44.45;;;22.27;;
36359;SDS011;22388;52.432;20.662;2024-02-21T12:56:28;44.25;;;22.83;;
36359;SDS011;22388;52.432;20.662;2024-02-21T12:58:53;45.75;;;21.88;;
36359;SDS011;22388;52.432;20.662;2024-02-21T13:01:19;48.70;;;21.55;;
36359;SDS011;22388;52.432;20.662;2024-02-21T13:03:44;45.13;;;22.15;;
36359;SDS011;22388;52.432;20.662;2024-02-21T13:06:11;53.20;;;21.63;;
36359;SDS011;22388;52.432;20.662;2024-02-21T13:08:37;45.22;;;22.13;;
36359;SDS011;22388;52.432;20.662;2024-02-21T13:11:02;49.88;;;22.60;;
36359;SDS011;22388;52.432;20.662;2024-02-21T13:13:28;46.88;;;21.52;;
36359;SDS011;22388;52.432;20.662;2024-02-21T13:15:53;43.47;;;21.83;;
36359;SDS011;22388;52.432;20.662;2024-02-21T13:18:19;42.28;;;21.30;;
36359;SDS011;22388;52.432;20.662;2024-02-21T13:20:44;46.00;;;21.55;;
36359;SDS011;22388;52.432;20.662;2024-02-21T13:23:10;45.22;;;21.40;;
36359;SDS011;22388;52.432;20.662;2024-02-21T13:25:35;50.40;;;20.73;;
36359;SDS011;22388;52.432;20.662;2024-02-21T13:28:01;46.92;;;22.75;;
36359;SDS011;22388;52.432;20.662;2024-02-21T13:30:28;53.60;;;22.00;;
36359;SDS011;22388;52.432;20.662;2024-02-21T13:32:54;44.45;;;20.55;;
36359;SDS011;22388;52.432;20.662;2024-02-21T13:35:20;45.97;;;22.08;;
36359;SDS011;22388;52.432;20.662;2024-02-21T13:37:45;48.72;;;22.48;;
36359;SDS011;22388;52.432;20.662;2024-02-21T13:40:11;51.80;;;21.40;;
36359;SDS011;22388;52.432;20.662;2024-02-21T13:42:37;50.97;;;21.10;;
36359;SDS011;22388;52.432;20.662;2024-02-21T13:45:03;39.70;;;20.60;;
36359;SDS011;22388;52.432;20.662;2024-02-21T13:47:30;41.67;;;19.60;;
36359;SDS011;22388;52.432;20.662;2024-02-21T13:49:56;41.20;;;19.65;;
36359;SDS011;22388;52.432;20.662;2024-02-21T13:52:22;46.47;;;20.77;;
36359;SDS011;22388;52.432;20.662;2024-02-21T13:54:48;46.10;;;18.55;;
36359;SDS011;22388;52.432;20.662;2024-02-21T13:57:13;44.75;;;20.20;;
36359;SDS011;22388;52.432;20.662;2024-02-21T13:59:39;38.75;;;19.17;;
36359;SDS011;22388;52.432;20.662;2024-02-21T14:02:05;40.30;;;20.63;;
36359;SDS011;22388;52.432;20.662;2024-02-21T14:04:33;43.95;;;19.77;;
36359;SDS011;22388;52.432;20.662;2024-02-21T14:06:59;42.72;;;19.27;;
36359;SDS011;22388;52.432;20.662;2024-02-21T14:09:25;44.17;;;20.48;;